sensor_id;sensor_type;location;lat;lon;timestamp;temperature;humidity
15690;DHT22;7945;48.816;11.506;2023-01-30T00:00:51;0.40;99.90
15690;DHT22;7945;48.816;11.506;2023-01-30T00:03:20;0.30;99.90
15690;DHT22;7945;48.816;11.506;2023-01-30T00:05:47;0.30;99.90
15690;DHT22;7945;48.816;11.506;2023-01-30T00:08:14;0.30;99.90
15690;DHT22;7945;48.816;11.506;2023-01-30T00:10:41;0.20;99.90
15690;DHT22;7945;48.816;11.506;2023-01-30T00:13:09;0.20;99.90
15690;DHT22;7945;48.816;11.506;2023-01-30T00:15:36;0.20;99.90
15690;DHT22;7945;48.816;11.506;2023-01-30T00:18:03;0.20;99.90
15690;DHT22;7945;48.816;11.506;2023-01-30T00:20:31;0.20;99.90
15690;DHT22;7945;48.816;11.506;2023-01-30T00:22:58;0.10;99.90
15690;DHT22;7945;48.816;11.506;2023-01-30T00:25:25;0.10;99.90
15690;DHT22;7945;48.816;11.506;2023-01-30T00:27:52;0.10;99.90
15690;DHT22;7945;48.816;11.506;2023-01-30T00:30:19;0.00;99.90
15690;DHT22;7945;48.816;11.506;2023-01-30T00:32:46;0.00;99.90
15690;DHT22;7945;48.816;11.506;2023-01-30T00:35:12;0.00;99.90
15690;DHT22;7945;48.816;11.506;2023-01-30T00:37:40;0.00;99.90
15690;DHT22;7945;48.816;11.506;2023-01-30T00:40:08;0.00;99.90
15690;DHT22;7945;48.816;11.506;2023-01-30T00:42:35;0.00;99.90
15690;DHT22;7945;48.816;11.506;2023-01-30T00:45:20;0.00;99.90
15690;DHT22;7945;48.816;11.506;2023-01-30T00:48:04;0.00;99.90
15690;DHT22;7945;48.816;11.506;2023-01-30T00:50:31;0.00;99.90
15690;DHT22;7945;48.816;11.506;2023-01-30T00:53:09;0.00;99.90
15690;DHT22;7945;48.816;11.506;2023-01-30T00:55:36;0.00;99.90
15690;DHT22;7945;48.816;11.506;2023-01-30T00:58:03;0.00;99.90
15690;DHT22;7945;48.816;11.506;2023-01-30T01:00:30;0.00;99.90
15690;DHT22;7945;48.816;11.506;2023-01-30T01:02:57;0.00;99.90
15690;DHT22;7945;48.816;11.506;2023-01-30T01:05:24;0.00;99.90
15690;DHT22;7945;48.816;11.506;2023-01-30T01:07:51;0.00;99.90
15690;DHT22;7945;48.816;11.506;2023-01-30T01:10:19;0.00;99.90
15690;DHT22;7945;48.816;11.506;2023-01-30T01:12:48;-0.10;99.90
15690;DHT22;7945;48.816;11.506;2023-01-30T01:15:20;-0.10;99.90
15690;DHT22;7945;48.816;11.506;2023-01-30T01:17:47;-0.10;99.90
15690;DHT22;7945;48.816;11.506;2023-01-30T01:20:14;-0.10;99.90
15690;DHT22;7945;48.816;11.506;2023-01-30T01:22:41;-0.10;99.90
15690;DHT22;7945;48.816;11.506;2023-01-30T01:25:08;-0.10;99.90
15690;DHT22;7945;48.816;11.506;2023-01-30T01:27:37;-0.10;99.90
15690;DHT22;7945;48.816;11.506;2023-01-30T01:30:05;-0.10;99.90
15690;DHT22;7945;48.816;11.506;2023-01-30T01:32:32;0.40;99.90
15690;DHT22;7945;48.816;11.506;2023-01-30T01:34:59;-0.20;99.90
15690;DHT22;7945;48.816;11.506;2023-01-30T01:37:26;-0.20;99.90
15690;DHT22;7945;48.816;11.506;2023-01-30T01:39:53;-0.20;99.90
15690;DHT22;7945;48.816;11.506;2023-01-30T01:42:38;-0.20;99.90
15690;DHT22;7945;48.816;11.506;2023-01-30T01:45:17;-0.30;99.90
15690;DHT22;7945;48.816;11.506;2023-01-30T01:47:48;-0.30;99.90
15690;DHT22;7945;48.816;11.506;2023-01-30T01:50:21;-0.30;99.90
15690;DHT22;7945;48.816;11.506;2023-01-30T01:52:52;-0.30;99.90
15690;DHT22;7945;48.816;11.506;2023-01-30T01:55:20;-0.40;99.90
15690;DHT22;7945;48.816;11.506;2023-01-30T01:57:53;-0.40;99.90
15690;DHT22;7945;48.816;11.506;2023-01-30T02:00:21;-0.40;99.90
15690;DHT22;7945;48.816;11.506;2023-01-30T02:02:50;-0.40;99.90
15690;DHT22;7945;48.816;11.506;2023-01-30T02:05:18;-0.40;99.90
15690;DHT22;7945;48.816;11.506;2023-01-30T02:07:47;-0.40;99.90
15690;DHT22;7945;48.816;11.506;2023-01-30T02:10:19;-0.40;99.90
15690;DHT22;7945;48.816;11.506;2023-01-30T02:12:50;-0.40;99.90
15690;DHT22;7945;48.816;11.506;2023-01-30T02:15:18;-0.40;99.90
15690;DHT22;7945;48.816;11.506;2023-01-30T02:17:45;-0.40;99.90
15690;DHT22;7945;48.816;11.506;2023-01-30T02:20:19;-0.30;99.90
15690;DHT22;7945;48.816;11.506;2023-01-30T02:23:12;-0.30;99.90
15690;DHT22;7945;48.816;11.506;2023-01-30T02:26:33;-0.30;99.90
15690;DHT22;7945;48.816;11.506;2023-01-30T02:29:23;-0.20;99.90
15690;DHT22;7945;48.816;11.506;2023-01-30T02:32:01;-0.20;99.90
15690;DHT22;7945;48.816;11.506;2023-01-30T02:34:38;-0.20;99.90
15690;DHT22;7945;48.816;11.506;2023-01-30T02:37:16;-0.20;99.90
15690;DHT22;7945;48.816;11.506;2023-01-30T02:40:00;-0.20;99.90
15690;DHT22;7945;48.816;11.506;2023-01-30T02:42:36;-0.20;99.90
15690;DHT22;7945;48.816;11.506;2023-01-30T02:45:08;-0.20;99.90
15690;DHT22;7945;48.816;11.506;2023-01-30T02:47:39;-0.20;99.90
15690;DHT22;7945;48.816;11.506;2023-01-30T02:50:11;-0.20;99.90
15690;DHT22;7945;48.816;11.506;2023-01-30T02:52:40;-0.10;99.90
15690;DHT22;7945;48.816;11.506;2023-01-30T02:55:13;-0.10;99.90
15690;DHT22;7945;48.816;11.506;2023-01-30T02:57:43;-0.10;99.90
15690;DHT22;7945;48.816;11.506;2023-01-30T03:00:11;-0.10;99.90
15690;DHT22;7945;48.816;11.506;2023-01-30T03:02:50;-0.10;99.90
15690;DHT22;7945;48.816;11.506;2023-01-30T03:05:39;-0.10;99.90
15690;DHT22;7945;48.816;11.506;2023-01-30T03:08:19;0.00;99.90
15690;DHT22;7945;48.816;11.506;2023-01-30T03:10:55;0.00;99.90
15690;DHT22;7945;48.816;11.506;2023-01-30T03:13:28;0.10;99.90
15690;DHT22;7945;48.816;11.506;2023-01-30T03:16:03;0.10;99.90
15690;DHT22;7945;48.816;11.506;2023-01-30T03:18:33;0.10;99.90
15690;DHT22;7945;48.816;11.506;2023-01-30T03:21:03;0.10;99.90
15690;DHT22;7945;48.816;11.506;2023-01-30T03:23:31;0.10;99.90
15690;DHT22;7945;48.816;11.506;2023-01-30T03:25:58;0.10;99.90
15690;DHT22;7945;48.816;11.506;2023-01-30T03:28:25;0.10;99.90
15690;DHT22;7945;48.816;11.506;2023-01-30T03:30:52;0.10;99.90
15690;DHT22;7945;48.816;11.506;2023-01-30T03:33:19;0.10;99.90
15690;DHT22;7945;48.816;11.506;2023-01-30T03:35:47;0.00;99.90
15690;DHT22;7945;48.816;11.506;2023-01-30T03:38:14;0.00;99.90
15690;DHT22;7945;48.816;11.506;2023-01-30T03:40:41;0.00;99.90
15690;DHT22;7945;48.816;11.506;2023-01-30T03:43:08;0.00;99.90
15690;DHT22;7945;48.816;11.506;2023-01-30T03:45:35;0.00;99.90
15690;DHT22;7945;48.816;11.506;2023-01-30T03:48:02;0.00;99.90
15690;DHT22;7945;48.816;11.506;2023-01-30T03:50:29;0.00;99.90
15690;DHT22;7945;48.816;11.506;2023-01-30T03:52:57;0.00;99.90
15690;DHT22;7945;48.816;11.506;2023-01-30T03:55:24;0.00;99.90
15690;DHT22;7945;48.816;11.506;2023-01-30T03:57:54;0.00;99.90
15690;DHT22;7945;48.816;11.506;2023-01-30T04:00:21;0.00;99.90
15690;DHT22;7945;48.816;11.506;2023-01-30T04:02:48;0.00;99.90
15690;DHT22;7945;48.816;11.506;2023-01-30T04:05:15;0.00;99.90
15690;DHT22;7945;48.816;11.506;2023-01-30T04:07:42;-0.10;99.90
15690;DHT22;7945;48.816;11.506;2023-01-30T04:10:11;-0.10;99.90
15690;DHT22;7945;48.816;11.506;2023-01-30T04:12:40;-0.10;99.90
15690;DHT22;7945;48.816;11.506;2023-01-30T04:15:07;-0.10;99.90
15690;DHT22;7945;48.816;11.506;2023-01-30T04:17:34;0.10;99.90
15690;DHT22;7945;48.816;11.506;2023-01-30T04:20:01;0.20;99.90
15690;DHT22;7945;48.816;11.506;2023-01-30T04:22:28;0.10;99.90
15690;DHT22;7945;48.816;11.506;2023-01-30T04:24:55;0.10;99.90
15690;DHT22;7945;48.816;11.506;2023-01-30T04:27:23;0.00;99.90
15690;DHT22;7945;48.816;11.506;2023-01-30T04:29:49;-0.10;99.90
15690;DHT22;7945;48.816;11.506;2023-01-30T04:32:16;-0.10;99.90
15690;DHT22;7945;48.816;11.506;2023-01-30T04:34:43;-0.20;99.90
15690;DHT22;7945;48.816;11.506;2023-01-30T04:37:10;-0.20;99.90
15690;DHT22;7945;48.816;11.506;2023-01-30T04:39:36;-0.20;99.90
15690;DHT22;7945;48.816;11.506;2023-01-30T04:42:03;-0.20;99.90
15690;DHT22;7945;48.816;11.506;2023-01-30T04:44:31;-0.30;99.90
15690;DHT22;7945;48.816;11.506;2023-01-30T04:46:58;-0.30;99.90
15690;DHT22;7945;48.816;11.506;2023-01-30T04:49:25;-0.40;99.90
15690;DHT22;7945;48.816;11.506;2023-01-30T04:51:52;-0.40;99.90
15690;DHT22;7945;48.816;11.506;2023-01-30T04:54:19;-0.40;99.90
15690;DHT22;7945;48.816;11.506;2023-01-30T04:56:46;-0.40;99.90
15690;DHT22;7945;48.816;11.506;2023-01-30T04:59:12;-0.40;99.90
15690;DHT22;7945;48.816;11.506;2023-01-30T05:01:41;-0.40;99.90
15690;DHT22;7945;48.816;11.506;2023-01-30T05:04:07;-0.40;99.90
15690;DHT22;7945;48.816;11.506;2023-01-30T05:06:35;-0.40;99.90
15690;DHT22;7945;48.816;11.506;2023-01-30T05:09:03;-0.40;99.90
15690;DHT22;7945;48.816;11.506;2023-01-30T05:11:30;-0.40;99.90
15690;DHT22;7945;48.816;11.506;2023-01-30T05:13:58;-0.40;99.90
15690;DHT22;7945;48.816;11.506;2023-01-30T05:16:25;-0.40;99.90
15690;DHT22;7945;48.816;11.506;2023-01-30T05:18:53;-0.40;99.90
15690;DHT22;7945;48.816;11.506;2023-01-30T05:21:22;-0.40;99.90
15690;DHT22;7945;48.816;11.506;2023-01-30T05:23:50;-0.40;99.90
15690;DHT22;7945;48.816;11.506;2023-01-30T05:26:17;-0.30;99.90
15690;DHT22;7945;48.816;11.506;2023-01-30T05:28:44;-0.30;99.90
15690;DHT22;7945;48.816;11.506;2023-01-30T05:31:16;-0.30;99.90
15690;DHT22;7945;48.816;11.506;2023-01-30T05:33:46;-0.30;99.90
15690;DHT22;7945;48.816;11.506;2023-01-30T05:36:15;-0.20;99.90
15690;DHT22;7945;48.816;11.506;2023-01-30T05:38:43;-0.20;99.90
15690;DHT22;7945;48.816;11.506;2023-01-30T05:41:12;-0.20;99.90
15690;DHT22;7945;48.816;11.506;2023-01-30T05:43:40;-0.20;99.90
15690;DHT22;7945;48.816;11.506;2023-01-30T05:46:08;-0.10;99.90
15690;DHT22;7945;48.816;11.506;2023-01-30T05:48:35;-0.10;99.90
15690;DHT22;7945;48.816;11.506;2023-01-30T05:51:02;0.00;99.90
15690;DHT22;7945;48.816;11.506;2023-01-30T05:53:32;0.00;99.90
15690;DHT22;7945;48.816;11.506;2023-01-30T05:56:01;0.00;99.90
15690;DHT22;7945;48.816;11.506;2023-01-30T05:58:29;0.00;99.90
15690;DHT22;7945;48.816;11.506;2023-01-30T06:00:59;0.00;99.90
15690;DHT22;7945;48.816;11.506;2023-01-30T06:03:26;0.00;99.90
15690;DHT22;7945;48.816;11.506;2023-01-30T06:05:53;0.10;99.90
15690;DHT22;7945;48.816;11.506;2023-01-30T06:08:20;0.10;99.90
15690;DHT22;7945;48.816;11.506;2023-01-30T06:10:48;0.10;99.90
15690;DHT22;7945;48.816;11.506;2023-01-30T06:15:09;-1.80;99.90
15690;DHT22;7945;48.816;11.506;2023-01-30T06:17:36;0.10;99.90
15690;DHT22;7945;48.816;11.506;2023-01-30T06:20:03;0.10;99.90
15690;DHT22;7945;48.816;11.506;2023-01-30T06:22:31;0.10;99.90
15690;DHT22;7945;48.816;11.506;2023-01-30T06:24:58;0.10;99.90
15690;DHT22;7945;48.816;11.506;2023-01-30T06:27:24;0.10;99.90
15690;DHT22;7945;48.816;11.506;2023-01-30T06:29:51;0.10;99.90
15690;DHT22;7945;48.816;11.506;2023-01-30T06:32:20;0.10;99.90
15690;DHT22;7945;48.816;11.506;2023-01-30T06:34:47;0.10;99.90
15690;DHT22;7945;48.816;11.506;2023-01-30T06:37:14;0.20;99.90
15690;DHT22;7945;48.816;11.506;2023-01-30T06:39:40;0.20;99.90
15690;DHT22;7945;48.816;11.506;2023-01-30T06:42:07;0.20;99.90
15690;DHT22;7945;48.816;11.506;2023-01-30T06:44:34;0.40;99.90
15690;DHT22;7945;48.816;11.506;2023-01-30T06:47:01;0.50;99.90
15690;DHT22;7945;48.816;11.506;2023-01-30T06:49:29;0.60;99.90
15690;DHT22;7945;48.816;11.506;2023-01-30T06:51:56;0.50;99.90
15690;DHT22;7945;48.816;11.506;2023-01-30T06:54:23;0.40;99.90
15690;DHT22;7945;48.816;11.506;2023-01-30T06:56:50;0.40;99.90
15690;DHT22;7945;48.816;11.506;2023-01-30T06:59:16;0.40;99.90
15690;DHT22;7945;48.816;11.506;2023-01-30T07:01:43;0.40;99.90
15690;DHT22;7945;48.816;11.506;2023-01-30T07:04:10;0.40;99.90
15690;DHT22;7945;48.816;11.506;2023-01-30T07:06:38;0.40;99.90
15690;DHT22;7945;48.816;11.506;2023-01-30T07:09:04;0.40;99.90
15690;DHT22;7945;48.816;11.506;2023-01-30T07:11:31;0.40;99.90
15690;DHT22;7945;48.816;11.506;2023-01-30T07:13:58;0.60;99.90
15690;DHT22;7945;48.816;11.506;2023-01-30T07:16:25;0.70;99.90
15690;DHT22;7945;48.816;11.506;2023-01-30T07:18:53;0.60;99.90
15690;DHT22;7945;48.816;11.506;2023-01-30T07:21:22;0.60;99.90
15690;DHT22;7945;48.816;11.506;2023-01-30T07:23:50;0.60;99.90
15690;DHT22;7945;48.816;11.506;2023-01-30T07:26:16;0.70;99.90
15690;DHT22;7945;48.816;11.506;2023-01-30T07:28:43;0.70;99.90
15690;DHT22;7945;48.816;11.506;2023-01-30T07:31:10;0.70;99.90
15690;DHT22;7945;48.816;11.506;2023-01-30T07:33:36;0.80;99.90
15690;DHT22;7945;48.816;11.506;2023-01-30T07:36:04;0.80;99.90
15690;DHT22;7945;48.816;11.506;2023-01-30T07:38:30;0.80;99.90
15690;DHT22;7945;48.816;11.506;2023-01-30T07:40:59;0.80;99.90
15690;DHT22;7945;48.816;11.506;2023-01-30T07:43:25;0.90;99.90
15690;DHT22;7945;48.816;11.506;2023-01-30T07:45:52;0.90;99.90
15690;DHT22;7945;48.816;11.506;2023-01-30T07:48:19;0.90;99.90
15690;DHT22;7945;48.816;11.506;2023-01-30T07:50:46;0.90;99.90
15690;DHT22;7945;48.816;11.506;2023-01-30T07:53:14;1.00;99.90
15690;DHT22;7945;48.816;11.506;2023-01-30T07:55:42;1.00;99.90
15690;DHT22;7945;48.816;11.506;2023-01-30T07:58:12;1.00;99.90
15690;DHT22;7945;48.816;11.506;2023-01-30T08:00:40;1.00;99.90
15690;DHT22;7945;48.816;11.506;2023-01-30T08:03:10;1.10;99.90
15690;DHT22;7945;48.816;11.506;2023-01-30T08:05:37;1.10;99.90
15690;DHT22;7945;48.816;11.506;2023-01-30T08:08:04;1.10;99.90
15690;DHT22;7945;48.816;11.506;2023-01-30T08:10:31;1.00;99.90
15690;DHT22;7945;48.816;11.506;2023-01-30T08:12:57;1.10;99.90
15690;DHT22;7945;48.816;11.506;2023-01-30T08:15:25;1.20;99.90
15690;DHT22;7945;48.816;11.506;2023-01-30T08:17:53;1.20;99.90
15690;DHT22;7945;48.816;11.506;2023-01-30T08:20:20;1.20;99.90
15690;DHT22;7945;48.816;11.506;2023-01-30T08:22:47;1.30;99.90
15690;DHT22;7945;48.816;11.506;2023-01-30T08:25:14;1.30;99.90
15690;DHT22;7945;48.816;11.506;2023-01-30T08:27:41;1.30;99.90
15690;DHT22;7945;48.816;11.506;2023-01-30T08:30:09;1.30;99.90
15690;DHT22;7945;48.816;11.506;2023-01-30T08:32:37;1.40;99.90
15690;DHT22;7945;48.816;11.506;2023-01-30T08:35:04;1.30;99.90
15690;DHT22;7945;48.816;11.506;2023-01-30T08:37:31;1.40;99.90
15690;DHT22;7945;48.816;11.506;2023-01-30T08:39:58;1.40;99.90
15690;DHT22;7945;48.816;11.506;2023-01-30T08:42:25;1.40;99.90
15690;DHT22;7945;48.816;11.506;2023-01-30T08:44:51;1.40;99.90
15690;DHT22;7945;48.816;11.506;2023-01-30T08:47:18;1.40;99.90
15690;DHT22;7945;48.816;11.506;2023-01-30T08:49:46;1.50;99.90
15690;DHT22;7945;48.816;11.506;2023-01-30T08:52:15;1.50;99.90
15690;DHT22;7945;48.816;11.506;2023-01-30T08:54:42;1.50;99.90
15690;DHT22;7945;48.816;11.506;2023-01-30T08:57:09;1.50;99.90
15690;DHT22;7945;48.816;11.506;2023-01-30T08:59:36;1.60;99.90
15690;DHT22;7945;48.816;11.506;2023-01-30T09:02:02;1.60;99.90
15690;DHT22;7945;48.816;11.506;2023-01-30T09:04:29;1.60;99.90
15690;DHT22;7945;48.816;11.506;2023-01-30T09:06:57;1.70;99.90
15690;DHT22;7945;48.816;11.506;2023-01-30T09:09:24;1.70;99.90
15690;DHT22;7945;48.816;11.506;2023-01-30T09:11:51;1.80;99.90
15690;DHT22;7945;48.816;11.506;2023-01-30T09:14:18;1.80;99.90
15690;DHT22;7945;48.816;11.506;2023-01-30T09:16:44;1.90;99.90
15690;DHT22;7945;48.816;11.506;2023-01-30T09:19:11;2.00;99.90
15690;DHT22;7945;48.816;11.506;2023-01-30T09:21:38;2.00;99.90
15690;DHT22;7945;48.816;11.506;2023-01-30T09:24:07;2.00;99.90
15690;DHT22;7945;48.816;11.506;2023-01-30T09:26:33;2.10;99.90
15690;DHT22;7945;48.816;11.506;2023-01-30T09:29:00;2.10;99.90
15690;DHT22;7945;48.816;11.506;2023-01-30T09:31:27;2.10;99.90
15690;DHT22;7945;48.816;11.506;2023-01-30T09:33:53;2.20;99.90
15690;DHT22;7945;48.816;11.506;2023-01-30T09:36:20;2.10;99.90
15690;DHT22;7945;48.816;11.506;2023-01-30T09:38:47;2.10;99.90
15690;DHT22;7945;48.816;11.506;2023-01-30T09:41:33;2.10;99.90
15690;DHT22;7945;48.816;11.506;2023-01-30T09:44:27;2.10;99.90
15690;DHT22;7945;48.816;11.506;2023-01-30T09:47:03;2.10;99.90
15690;DHT22;7945;48.816;11.506;2023-01-30T09:49:40;2.10;99.90
15690;DHT22;7945;48.816;11.506;2023-01-30T09:52:22;2.10;99.90
15690;DHT22;7945;48.816;11.506;2023-01-30T09:54:57;2.10;99.90
15690;DHT22;7945;48.816;11.506;2023-01-30T09:57:25;2.10;99.90
15690;DHT22;7945;48.816;11.506;2023-01-30T09:59:56;2.10;99.90
15690;DHT22;7945;48.816;11.506;2023-01-30T10:05:09;2.20;99.90
15690;DHT22;7945;48.816;11.506;2023-01-30T10:07:56;2.20;99.90
15690;DHT22;7945;48.816;11.506;2023-01-30T10:10:37;2.20;99.90
15690;DHT22;7945;48.816;11.506;2023-01-30T10:13:17;2.30;99.90
15690;DHT22;7945;48.816;11.506;2023-01-30T10:15:51;2.30;99.90
15690;DHT22;7945;48.816;11.506;2023-01-30T10:18:45;2.30;99.90
15690;DHT22;7945;48.816;11.506;2023-01-30T10:21:23;2.30;99.90
15690;DHT22;7945;48.816;11.506;2023-01-30T10:24:04;2.30;99.90
15690;DHT22;7945;48.816;11.506;2023-01-30T10:26:34;2.30;99.90
15690;DHT22;7945;48.816;11.506;2023-01-30T10:29:04;2.30;99.90
15690;DHT22;7945;48.816;11.506;2023-01-30T10:31:41;2.30;99.90
15690;DHT22;7945;48.816;11.506;2023-01-30T10:34:11;3.70;99.90
15690;DHT22;7945;48.816;11.506;2023-01-30T10:36:44;2.40;99.90
15690;DHT22;7945;48.816;11.506;2023-01-30T10:39:20;2.40;99.90
15690;DHT22;7945;48.816;11.506;2023-01-30T10:41:53;2.40;99.90
15690;DHT22;7945;48.816;11.506;2023-01-30T10:44:22;2.50;99.90
15690;DHT22;7945;48.816;11.506;2023-01-30T10:47:03;2.50;99.90
15690;DHT22;7945;48.816;11.506;2023-01-30T10:49:38;2.50;99.90
15690;DHT22;7945;48.816;11.506;2023-01-30T10:52:18;2.60;99.90
15690;DHT22;7945;48.816;11.506;2023-01-30T10:54:57;2.80;99.90
15690;DHT22;7945;48.816;11.506;2023-01-30T10:57:35;2.80;99.90
15690;DHT22;7945;48.816;11.506;2023-01-30T11:00:13;2.90;99.90
15690;DHT22;7945;48.816;11.506;2023-01-30T11:02:48;2.90;99.90
15690;DHT22;7945;48.816;11.506;2023-01-30T11:05:21;2.90;99.90
15690;DHT22;7945;48.816;11.506;2023-01-30T11:07:49;2.80;99.90
15690;DHT22;7945;48.816;11.506;2023-01-30T11:10:18;2.80;99.90
15690;DHT22;7945;48.816;11.506;2023-01-30T11:12:45;2.80;99.90
15690;DHT22;7945;48.816;11.506;2023-01-30T11:15:13;2.80;99.90
15690;DHT22;7945;48.816;11.506;2023-01-30T11:17:42;2.80;99.90
15690;DHT22;7945;48.816;11.506;2023-01-30T11:20:13;2.80;99.90
15690;DHT22;7945;48.816;11.506;2023-01-30T11:22:45;2.80;99.90
15690;DHT22;7945;48.816;11.506;2023-01-30T11:25:14;2.70;99.90
15690;DHT22;7945;48.816;11.506;2023-01-30T11:27:42;2.70;99.90
15690;DHT22;7945;48.816;11.506;2023-01-30T11:30:16;2.80;99.90
15690;DHT22;7945;48.816;11.506;2023-01-30T11:32:45;2.70;99.90
15690;DHT22;7945;48.816;11.506;2023-01-30T11:35:22;2.70;99.90
15690;DHT22;7945;48.816;11.506;2023-01-30T11:37:50;2.70;99.90
15690;DHT22;7945;48.816;11.506;2023-01-30T11:40:24;2.70;99.90
15690;DHT22;7945;48.816;11.506;2023-01-30T11:42:53;2.70;99.90
15690;DHT22;7945;48.816;11.506;2023-01-30T11:45:25;2.80;99.90
15690;DHT22;7945;48.816;11.506;2023-01-30T11:47:56;2.80;99.90
15690;DHT22;7945;48.816;11.506;2023-01-30T11:50:26;2.80;99.90
15690;DHT22;7945;48.816;11.506;2023-01-30T11:52:54;2.80;99.90
15690;DHT22;7945;48.816;11.506;2023-01-30T11:55:21;2.80;99.90
15690;DHT22;7945;48.816;11.506;2023-01-30T11:57:51;2.80;99.90
15690;DHT22;7945;48.816;11.506;2023-01-30T12:00:21;2.80;99.90
15690;DHT22;7945;48.816;11.506;2023-01-30T12:02:51;2.80;99.90
15690;DHT22;7945;48.816;11.506;2023-01-30T12:05:24;2.90;99.90
15690;DHT22;7945;48.816;11.506;2023-01-30T12:07:51;3.00;99.90
15690;DHT22;7945;48.816;11.506;2023-01-30T12:10:27;3.00;99.90
15690;DHT22;7945;48.816;11.506;2023-01-30T12:12:55;3.00;99.90
15690;DHT22;7945;48.816;11.506;2023-01-30T12:15:26;3.00;99.90
15690;DHT22;7945;48.816;11.506;2023-01-30T12:17:59;3.00;99.90
15690;DHT22;7945;48.816;11.506;2023-01-30T12:20:40;2.90;99.90
15690;DHT22;7945;48.816;11.506;2023-01-30T12:23:16;2.90;99.90
15690;DHT22;7945;48.816;11.506;2023-01-30T12:25:54;2.90;99.90
15690;DHT22;7945;48.816;11.506;2023-01-30T12:28:30;2.90;99.90
15690;DHT22;7945;48.816;11.506;2023-01-30T12:31:04;2.90;99.90
15690;DHT22;7945;48.816;11.506;2023-01-30T12:33:35;2.90;99.90
15690;DHT22;7945;48.816;11.506;2023-01-30T12:36:11;2.80;99.90
15690;DHT22;7945;48.816;11.506;2023-01-30T12:39:04;2.80;99.90
15690;DHT22;7945;48.816;11.506;2023-01-30T12:41:41;2.80;99.90
15690;DHT22;7945;48.816;11.506;2023-01-30T12:44:22;2.80;99.90
15690;DHT22;7945;48.816;11.506;2023-01-30T12:47:06;2.80;99.90
15690;DHT22;7945;48.816;11.506;2023-01-30T12:49:49;2.80;99.90
15690;DHT22;7945;48.816;11.506;2023-01-30T12:52:37;2.80;99.90
15690;DHT22;7945;48.816;11.506;2023-01-30T12:55:21;2.70;99.90
15690;DHT22;7945;48.816;11.506;2023-01-30T12:57:52;2.70;99.90
15690;DHT22;7945;48.816;11.506;2023-01-30T13:00:28;2.70;99.90
15690;DHT22;7945;48.816;11.506;2023-01-30T13:03:09;2.70;99.90
15690;DHT22;7945;48.816;11.506;2023-01-30T13:05:45;2.70;99.90
15690;DHT22;7945;48.816;11.506;2023-01-30T13:08:32;2.70;99.90
15690;DHT22;7945;48.816;11.506;2023-01-30T13:11:15;2.60;99.90
15690;DHT22;7945;48.816;11.506;2023-01-30T13:13:48;2.60;99.90
15690;DHT22;7945;48.816;11.506;2023-01-30T13:16:23;2.50;99.90
15690;DHT22;7945;48.816;11.506;2023-01-30T13:18:54;2.50;99.90
15690;DHT22;7945;48.816;11.506;2023-01-30T13:21:27;2.50;99.90
15690;DHT22;7945;48.816;11.506;2023-01-30T13:24:06;3.50;99.90
15690;DHT22;7945;48.816;11.506;2023-01-30T13:26:38;2.50;99.90
15690;DHT22;7945;48.816;11.506;2023-01-30T13:29:11;2.50;99.90
15690;DHT22;7945;48.816;11.506;2023-01-30T13:31:48;2.50;99.90
15690;DHT22;7945;48.816;11.506;2023-01-30T13:34:21;2.50;99.90
15690;DHT22;7945;48.816;11.506;2023-01-30T13:36:54;2.50;99.90
15690;DHT22;7945;48.816;11.506;2023-01-30T13:39:30;2.50;99.90
15690;DHT22;7945;48.816;11.506;2023-01-30T13:41:59;2.40;99.90
15690;DHT22;7945;48.816;11.506;2023-01-30T13:44:29;2.40;99.90
15690;DHT22;7945;48.816;11.506;2023-01-30T13:47:00;2.40;99.90
15690;DHT22;7945;48.816;11.506;2023-01-30T13:49:35;2.40;99.90
15690;DHT22;7945;48.816;11.506;2023-01-30T13:52:08;2.40;99.90
15690;DHT22;7945;48.816;11.506;2023-01-30T13:54:51;2.40;99.90
15690;DHT22;7945;48.816;11.506;2023-01-30T13:57:39;2.40;99.90
15690;DHT22;7945;48.816;11.506;2023-01-30T14:00:29;2.40;99.90
15690;DHT22;7945;48.816;11.506;2023-01-30T14:03:20;2.40;99.90
15690;DHT22;7945;48.816;11.506;2023-01-30T14:06:34;2.40;99.90
15690;DHT22;7945;48.816;11.506;2023-01-30T14:09:16;2.40;99.90
15690;DHT22;7945;48.816;11.506;2023-01-30T14:11:47;2.40;99.90
15690;DHT22;7945;48.816;11.506;2023-01-30T14:14:28;2.40;99.90
15690;DHT22;7945;48.816;11.506;2023-01-30T14:17:05;2.30;99.90
15690;DHT22;7945;48.816;11.506;2023-01-30T14:19:44;2.30;99.90
15690;DHT22;7945;48.816;11.506;2023-01-30T14:22:25;2.40;99.90
15690;DHT22;7945;48.816;11.506;2023-01-30T14:34:44;2.40;99.90
15690;DHT22;7945;48.816;11.506;2023-01-30T14:40:39;2.40;99.90
15690;DHT22;7945;48.816;11.506;2023-01-30T14:43:35;2.40;99.90
15690;DHT22;7945;48.816;11.506;2023-01-30T14:46:04;2.40;99.90
15690;DHT22;7945;48.816;11.506;2023-01-30T14:48:34;2.40;99.90
15690;DHT22;7945;48.816;11.506;2023-01-30T14:51:18;2.50;99.90
15690;DHT22;7945;48.816;11.506;2023-01-30T14:53:51;2.60;99.90
15690;DHT22;7945;48.816;11.506;2023-01-30T14:56:22;2.60;99.90
15690;DHT22;7945;48.816;11.506;2023-01-30T14:59:01;2.60;99.90
15690;DHT22;7945;48.816;11.506;2023-01-30T15:01:54;2.60;99.90
15690;DHT22;7945;48.816;11.506;2023-01-30T15:04:22;2.90;99.90
15690;DHT22;7945;48.816;11.506;2023-01-30T15:06:51;2.90;99.90
15690;DHT22;7945;48.816;11.506;2023-01-30T15:09:19;2.90;99.90
15690;DHT22;7945;48.816;11.506;2023-01-30T15:11:53;2.80;99.90
15690;DHT22;7945;48.816;11.506;2023-01-30T15:14:26;2.80;99.90
15690;DHT22;7945;48.816;11.506;2023-01-30T15:17:06;2.80;99.90
15690;DHT22;7945;48.816;11.506;2023-01-30T15:19:47;2.70;99.90
15690;DHT22;7945;48.816;11.506;2023-01-30T15:22:26;2.80;99.90
15690;DHT22;7945;48.816;11.506;2023-01-30T15:25:22;2.80;99.90
15690;DHT22;7945;48.816;11.506;2023-01-30T15:28:01;2.80;99.90
15690;DHT22;7945;48.816;11.506;2023-01-30T15:30:46;2.80;99.90
15690;DHT22;7945;48.816;11.506;2023-01-30T15:33:22;2.80;99.90
15690;DHT22;7945;48.816;11.506;2023-01-30T15:35:49;2.90;99.90
15690;DHT22;7945;48.816;11.506;2023-01-30T15:38:29;3.00;99.90
15690;DHT22;7945;48.816;11.506;2023-01-30T15:40:58;3.00;99.90
15690;DHT22;7945;48.816;11.506;2023-01-30T15:43:52;2.90;99.90
15690;DHT22;7945;48.816;11.506;2023-01-30T15:46:27;2.90;99.90
15690;DHT22;7945;48.816;11.506;2023-01-30T15:49:08;3.30;99.90
15690;DHT22;7945;48.816;11.506;2023-01-30T15:51:39;3.00;99.90
15690;DHT22;7945;48.816;11.506;2023-01-30T15:54:10;3.00;99.90
15690;DHT22;7945;48.816;11.506;2023-01-30T15:56:40;3.00;99.90
15690;DHT22;7945;48.816;11.506;2023-01-30T15:59:25;3.00;99.90
15690;DHT22;7945;48.816;11.506;2023-01-30T16:01:58;3.00;99.90
15690;DHT22;7945;48.816;11.506;2023-01-30T16:04:26;3.10;99.90
15690;DHT22;7945;48.816;11.506;2023-01-30T16:06:54;3.10;99.90
15690;DHT22;7945;48.816;11.506;2023-01-30T16:09:23;3.20;99.90
15690;DHT22;7945;48.816;11.506;2023-01-30T16:11:50;3.10;99.90
15690;DHT22;7945;48.816;11.506;2023-01-30T16:14:19;3.20;99.90
15690;DHT22;7945;48.816;11.506;2023-01-30T16:16:49;3.20;99.90
15690;DHT22;7945;48.816;11.506;2023-01-30T16:19:22;3.30;99.90
15690;DHT22;7945;48.816;11.506;2023-01-30T16:21:51;3.30;99.90
15690;DHT22;7945;48.816;11.506;2023-01-30T16:24:22;3.30;99.90
15690;DHT22;7945;48.816;11.506;2023-01-30T16:26:52;3.30;99.90